sensor_id;sensor_type;location;lat;lon;timestamp;temperature;humidity
26212;DHT22;13951;49.516;6.094;2022-08-01T00:01:25;21.30;99.90
26212;DHT22;13951;49.516;6.094;2022-08-01T00:03:58;21.40;99.90
26212;DHT22;13951;49.516;6.094;2022-08-01T00:06:31;21.30;99.90
26212;DHT22;13951;49.516;6.094;2022-08-01T00:09:04;21.30;99.90
26212;DHT22;13951;49.516;6.094;2022-08-01T00:11:37;21.30;99.90
26212;DHT22;13951;49.516;6.094;2022-08-01T00:14:10;21.30;99.90
26212;DHT22;13951;49.516;6.094;2022-08-01T00:16:44;21.30;99.90
26212;DHT22;13951;49.516;6.094;2022-08-01T00:19:17;21.20;99.90
26212;DHT22;13951;49.516;6.094;2022-08-01T00:21:50;21.30;99.90
26212;DHT22;13951;49.516;6.094;2022-08-01T00:24:24;21.20;99.90
26212;DHT22;13951;49.516;6.094;2022-08-01T00:26:57;21.20;99.90
26212;DHT22;13951;49.516;6.094;2022-08-01T00:29:30;21.20;99.90
26212;DHT22;13951;49.516;6.094;2022-08-01T00:32:23;21.20;99.90
26212;DHT22;13951;49.516;6.094;2022-08-01T00:34:56;21.10;99.90
26212;DHT22;13951;49.516;6.094;2022-08-01T00:37:29;21.10;99.90
26212;DHT22;13951;49.516;6.094;2022-08-01T00:40:02;21.10;99.90
26212;DHT22;13951;49.516;6.094;2022-08-01T00:42:35;21.00;99.90
26212;DHT22;13951;49.516;6.094;2022-08-01T00:45:15;21.00;99.90
26212;DHT22;13951;49.516;6.094;2022-08-01T00:47:48;21.00;99.90
26212;DHT22;13951;49.516;6.094;2022-08-01T00:50:27;20.90;99.90
26212;DHT22;13951;49.516;6.094;2022-08-01T00:53:00;20.90;99.90
26212;DHT22;13951;49.516;6.094;2022-08-01T00:55:34;20.90;99.90
26212;DHT22;13951;49.516;6.094;2022-08-01T00:58:07;20.90;99.90
26212;DHT22;13951;49.516;6.094;2022-08-01T01:00:44;20.90;99.90
26212;DHT22;13951;49.516;6.094;2022-08-01T01:03:26;20.90;99.90
26212;DHT22;13951;49.516;6.094;2022-08-01T01:06:31;20.90;99.90
26212;DHT22;13951;49.516;6.094;2022-08-01T01:09:34;20.90;99.90
26212;DHT22;13951;49.516;6.094;2022-08-01T01:12:30;20.90;99.90
26212;DHT22;13951;49.516;6.094;2022-08-01T01:18:17;20.90;99.90
26212;DHT22;13951;49.516;6.094;2022-08-01T01:26:54;20.80;99.90
26212;DHT22;13951;49.516;6.094;2022-08-01T01:29:48;20.70;99.90
26212;DHT22;13951;49.516;6.094;2022-08-01T01:32:35;20.60;99.90
26212;DHT22;13951;49.516;6.094;2022-08-01T01:35:19;20.60;99.90
26212;DHT22;13951;49.516;6.094;2022-08-01T01:38:00;20.60;99.90
26212;DHT22;13951;49.516;6.094;2022-08-01T01:40:34;20.60;99.90
26212;DHT22;13951;49.516;6.094;2022-08-01T01:43:10;20.60;99.90
26212;DHT22;13951;49.516;6.094;2022-08-01T01:45:48;20.50;99.90
26212;DHT22;13951;49.516;6.094;2022-08-01T01:48:24;20.50;99.90
26212;DHT22;13951;49.516;6.094;2022-08-01T01:51:00;20.50;99.90
26212;DHT22;13951;49.516;6.094;2022-08-01T01:53:34;20.50;99.90
26212;DHT22;13951;49.516;6.094;2022-08-01T01:56:09;20.50;99.90
26212;DHT22;13951;49.516;6.094;2022-08-01T01:58:43;20.50;99.90
26212;DHT22;13951;49.516;6.094;2022-08-01T02:01:18;20.50;99.90
26212;DHT22;13951;49.516;6.094;2022-08-01T02:04:12;20.50;99.90
26212;DHT22;13951;49.516;6.094;2022-08-01T02:06:46;20.50;99.90
26212;DHT22;13951;49.516;6.094;2022-08-01T02:09:23;20.50;99.90
26212;DHT22;13951;49.516;6.094;2022-08-01T02:11:59;20.40;99.90
26212;DHT22;13951;49.516;6.094;2022-08-01T02:14:42;20.40;99.90
26212;DHT22;13951;49.516;6.094;2022-08-01T02:17:18;20.30;99.90
26212;DHT22;13951;49.516;6.094;2022-08-01T02:19:53;20.30;99.90
26212;DHT22;13951;49.516;6.094;2022-08-01T02:22:39;20.20;99.90
26212;DHT22;13951;49.516;6.094;2022-08-01T02:28:03;20.20;99.90
26212;DHT22;13951;49.516;6.094;2022-08-01T02:30:39;20.20;99.90
26212;DHT22;13951;49.516;6.094;2022-08-01T02:33:23;20.20;99.90
26212;DHT22;13951;49.516;6.094;2022-08-01T02:35:58;20.20;99.90
26212;DHT22;13951;49.516;6.094;2022-08-01T02:38:54;20.20;99.90
26212;DHT22;13951;49.516;6.094;2022-08-01T02:41:30;20.20;99.90
26212;DHT22;13951;49.516;6.094;2022-08-01T02:44:06;20.20;99.90
26212;DHT22;13951;49.516;6.094;2022-08-01T02:46:47;20.10;99.90
26212;DHT22;13951;49.516;6.094;2022-08-01T02:49:23;20.10;99.90
26212;DHT22;13951;49.516;6.094;2022-08-01T02:51:57;20.10;99.90
26212;DHT22;13951;49.516;6.094;2022-08-01T02:54:31;20.10;99.90
26212;DHT22;13951;49.516;6.094;2022-08-01T02:57:06;20.10;99.90
26212;DHT22;13951;49.516;6.094;2022-08-01T02:59:46;20.10;99.90
26212;DHT22;13951;49.516;6.094;2022-08-01T03:02:20;20.00;99.90
26212;DHT22;13951;49.516;6.094;2022-08-01T03:04:55;20.00;99.90
26212;DHT22;13951;49.516;6.094;2022-08-01T03:07:30;20.00;99.90
26212;DHT22;13951;49.516;6.094;2022-08-01T03:10:09;20.00;99.90
26212;DHT22;13951;49.516;6.094;2022-08-01T03:12:44;19.90;99.90
26212;DHT22;13951;49.516;6.094;2022-08-01T03:15:21;19.90;99.90
26212;DHT22;13951;49.516;6.094;2022-08-01T03:20:30;19.80;99.90
26212;DHT22;13951;49.516;6.094;2022-08-01T03:23:07;19.80;99.90
26212;DHT22;13951;49.516;6.094;2022-08-01T03:25:43;19.70;99.90
26212;DHT22;13951;49.516;6.094;2022-08-01T03:28:18;19.70;99.90
26212;DHT22;13951;49.516;6.094;2022-08-01T03:30:54;19.70;99.90
26212;DHT22;13951;49.516;6.094;2022-08-01T03:33:27;19.70;99.90
26212;DHT22;13951;49.516;6.094;2022-08-01T03:38:35;19.50;99.90
26212;DHT22;13951;49.516;6.094;2022-08-01T03:41:20;19.40;99.90
26212;DHT22;13951;49.516;6.094;2022-08-01T03:44:02;19.40;99.90
26212;DHT22;13951;49.516;6.094;2022-08-01T03:46:45;19.40;99.90
26212;DHT22;13951;49.516;6.094;2022-08-01T03:49:22;19.30;99.90
26212;DHT22;13951;49.516;6.094;2022-08-01T03:51:57;19.30;99.90
26212;DHT22;13951;49.516;6.094;2022-08-01T03:54:34;19.20;99.90
26212;DHT22;13951;49.516;6.094;2022-08-01T03:57:09;19.20;99.90
26212;DHT22;13951;49.516;6.094;2022-08-01T04:00:04;19.20;99.90
26212;DHT22;13951;49.516;6.094;2022-08-01T04:02:47;19.10;99.90
26212;DHT22;13951;49.516;6.094;2022-08-01T04:05:20;19.20;99.90
26212;DHT22;13951;49.516;6.094;2022-08-01T04:07:55;19.10;99.90
26212;DHT22;13951;49.516;6.094;2022-08-01T04:10:29;19.10;99.90
26212;DHT22;13951;49.516;6.094;2022-08-01T04:13:02;19.10;99.90
26212;DHT22;13951;49.516;6.094;2022-08-01T04:15:35;19.00;99.90
26212;DHT22;13951;49.516;6.094;2022-08-01T04:18:08;18.90;99.90
26212;DHT22;13951;49.516;6.094;2022-08-01T04:23:20;18.70;99.90
26212;DHT22;13951;49.516;6.094;2022-08-01T04:25:55;18.60;99.90
26212;DHT22;13951;49.516;6.094;2022-08-01T04:28:31;18.60;99.90
26212;DHT22;13951;49.516;6.094;2022-08-01T04:31:09;18.60;99.90
26212;DHT22;13951;49.516;6.094;2022-08-01T04:33:47;18.60;99.90
26212;DHT22;13951;49.516;6.094;2022-08-01T04:36:23;18.50;99.90
26212;DHT22;13951;49.516;6.094;2022-08-01T04:39:00;18.50;99.90
26212;DHT22;13951;49.516;6.094;2022-08-01T04:41:34;18.40;99.90
26212;DHT22;13951;49.516;6.094;2022-08-01T04:44:08;18.50;99.90
26212;DHT22;13951;49.516;6.094;2022-08-01T04:46:41;18.50;99.90
26212;DHT22;13951;49.516;6.094;2022-08-01T04:49:15;18.50;99.90
26212;DHT22;13951;49.516;6.094;2022-08-01T04:51:53;18.50;99.90
26212;DHT22;13951;49.516;6.094;2022-08-01T04:54:36;18.50;99.90
26212;DHT22;13951;49.516;6.094;2022-08-01T04:57:12;18.60;99.90
26212;DHT22;13951;49.516;6.094;2022-08-01T04:59:45;18.60;99.90
26212;DHT22;13951;49.516;6.094;2022-08-01T05:02:19;18.60;99.90
26212;DHT22;13951;49.516;6.094;2022-08-01T05:04:52;18.70;99.90
26212;DHT22;13951;49.516;6.094;2022-08-01T05:07:25;18.80;99.90
26212;DHT22;13951;49.516;6.094;2022-08-01T05:09:58;18.80;99.90
26212;DHT22;13951;49.516;6.094;2022-08-01T05:12:31;18.90;99.90
26212;DHT22;13951;49.516;6.094;2022-08-01T05:15:05;18.90;99.90
26212;DHT22;13951;49.516;6.094;2022-08-01T05:17:46;19.00;99.90
26212;DHT22;13951;49.516;6.094;2022-08-01T05:20:19;19.00;99.90
26212;DHT22;13951;49.516;6.094;2022-08-01T05:22:52;19.10;99.90
26212;DHT22;13951;49.516;6.094;2022-08-01T05:25:26;19.20;99.90
26212;DHT22;13951;49.516;6.094;2022-08-01T05:28:21;19.30;99.90
26212;DHT22;13951;49.516;6.094;2022-08-01T05:30:54;19.50;99.90
26212;DHT22;13951;49.516;6.094;2022-08-01T05:33:28;19.60;99.90
26212;DHT22;13951;49.516;6.094;2022-08-01T05:36:01;19.70;99.90
26212;DHT22;13951;49.516;6.094;2022-08-01T05:38:34;19.90;99.90
26212;DHT22;13951;49.516;6.094;2022-08-01T05:41:07;19.90;99.90
26212;DHT22;13951;49.516;6.094;2022-08-01T05:43:40;20.00;99.90
26212;DHT22;13951;49.516;6.094;2022-08-01T05:46:13;20.10;99.90
26212;DHT22;13951;49.516;6.094;2022-08-01T05:48:46;20.20;99.90
26212;DHT22;13951;49.516;6.094;2022-08-01T05:51:19;20.20;99.90
26212;DHT22;13951;49.516;6.094;2022-08-01T05:53:53;20.20;99.90
26212;DHT22;13951;49.516;6.094;2022-08-01T05:56:26;20.20;99.90
26212;DHT22;13951;49.516;6.094;2022-08-01T05:59:04;20.30;99.90
26212;DHT22;13951;49.516;6.094;2022-08-01T06:01:37;20.30;99.90
26212;DHT22;13951;49.516;6.094;2022-08-01T06:04:10;20.40;99.90
26212;DHT22;13951;49.516;6.094;2022-08-01T06:06:43;20.30;99.90
26212;DHT22;13951;49.516;6.094;2022-08-01T06:09:16;20.40;99.90
26212;DHT22;13951;49.516;6.094;2022-08-01T06:11:49;20.40;99.90
26212;DHT22;13951;49.516;6.094;2022-08-01T06:14:22;20.40;99.90
26212;DHT22;13951;49.516;6.094;2022-08-01T06:16:56;20.50;99.90
26212;DHT22;13951;49.516;6.094;2022-08-01T06:19:29;20.60;99.90
26212;DHT22;13951;49.516;6.094;2022-08-01T06:22:02;20.60;99.90
26212;DHT22;13951;49.516;6.094;2022-08-01T06:24:36;20.60;99.90
26212;DHT22;13951;49.516;6.094;2022-08-01T06:27:09;20.60;99.90
26212;DHT22;13951;49.516;6.094;2022-08-01T06:29:53;20.70;99.90
26212;DHT22;13951;49.516;6.094;2022-08-01T06:32:26;20.80;99.90
26212;DHT22;13951;49.516;6.094;2022-08-01T06:34:59;20.80;99.90
26212;DHT22;13951;49.516;6.094;2022-08-01T06:37:33;20.90;99.90
26212;DHT22;13951;49.516;6.094;2022-08-01T06:40:08;21.00;99.90
26212;DHT22;13951;49.516;6.094;2022-08-01T06:42:48;21.10;99.90
26212;DHT22;13951;49.516;6.094;2022-08-01T06:45:21;21.10;99.90
26212;DHT22;13951;49.516;6.094;2022-08-01T06:47:55;21.30;99.90
26212;DHT22;13951;49.516;6.094;2022-08-01T06:50:28;21.30;99.90
26212;DHT22;13951;49.516;6.094;2022-08-01T06:53:06;21.40;99.90
26212;DHT22;13951;49.516;6.094;2022-08-01T06:55:39;21.50;99.90
26212;DHT22;13951;49.516;6.094;2022-08-01T06:58:12;21.60;99.90
26212;DHT22;13951;49.516;6.094;2022-08-01T07:00:45;21.60;99.90
26212;DHT22;13951;49.516;6.094;2022-08-01T07:03:18;21.60;99.90
26212;DHT22;13951;49.516;6.094;2022-08-01T07:05:52;21.70;99.90
26212;DHT22;13951;49.516;6.094;2022-08-01T07:08:25;21.80;99.90
26212;DHT22;13951;49.516;6.094;2022-08-01T07:10:58;21.80;99.90
26212;DHT22;13951;49.516;6.094;2022-08-01T07:13:32;21.80;99.90
26212;DHT22;13951;49.516;6.094;2022-08-01T07:16:16;21.80;99.90
26212;DHT22;13951;49.516;6.094;2022-08-01T07:18:50;21.90;99.90
26212;DHT22;13951;49.516;6.094;2022-08-01T07:21:23;22.00;99.90
26212;DHT22;13951;49.516;6.094;2022-08-01T07:24:14;22.10;99.90
26212;DHT22;13951;49.516;6.094;2022-08-01T07:26:48;22.10;99.90
26212;DHT22;13951;49.516;6.094;2022-08-01T07:29:26;22.20;99.90
26212;DHT22;13951;49.516;6.094;2022-08-01T07:32:00;22.30;99.90
26212;DHT22;13951;49.516;6.094;2022-08-01T07:34:33;22.40;99.90
26212;DHT22;13951;49.516;6.094;2022-08-01T07:37:05;22.50;99.90
26212;DHT22;13951;49.516;6.094;2022-08-01T07:39:39;22.60;99.90
26212;DHT22;13951;49.516;6.094;2022-08-01T07:42:12;22.50;99.90
26212;DHT22;13951;49.516;6.094;2022-08-01T07:44:45;22.60;99.90
26212;DHT22;13951;49.516;6.094;2022-08-01T07:47:26;22.70;99.90
26212;DHT22;13951;49.516;6.094;2022-08-01T07:50:00;22.70;99.90
26212;DHT22;13951;49.516;6.094;2022-08-01T07:52:33;22.70;99.90
26212;DHT22;13951;49.516;6.094;2022-08-01T07:55:07;22.70;99.90
26212;DHT22;13951;49.516;6.094;2022-08-01T07:57:40;22.70;99.90
26212;DHT22;13951;49.516;6.094;2022-08-01T08:00:13;22.60;99.90
26212;DHT22;13951;49.516;6.094;2022-08-01T08:02:46;22.60;99.90
26212;DHT22;13951;49.516;6.094;2022-08-01T08:05:20;22.60;99.90
26212;DHT22;13951;49.516;6.094;2022-08-01T08:08:13;22.60;99.90
26212;DHT22;13951;49.516;6.094;2022-08-01T08:10:48;22.60;99.90
26212;DHT22;13951;49.516;6.094;2022-08-01T08:13:22;22.60;99.90
26212;DHT22;13951;49.516;6.094;2022-08-01T08:15:55;22.60;99.90
26212;DHT22;13951;49.516;6.094;2022-08-01T08:18:29;22.50;99.90
26212;DHT22;13951;49.516;6.094;2022-08-01T08:21:02;22.50;99.90
26212;DHT22;13951;49.516;6.094;2022-08-01T08:23:38;22.40;99.90
26212;DHT22;13951;49.516;6.094;2022-08-01T08:26:30;22.40;99.90
26212;DHT22;13951;49.516;6.094;2022-08-01T08:29:03;22.40;99.90
26212;DHT22;13951;49.516;6.094;2022-08-01T08:31:36;22.40;99.90
26212;DHT22;13951;49.516;6.094;2022-08-01T08:34:25;22.40;99.90
26212;DHT22;13951;49.516;6.094;2022-08-01T08:36:59;22.40;99.90
26212;DHT22;13951;49.516;6.094;2022-08-01T08:39:32;22.40;99.90
26212;DHT22;13951;49.516;6.094;2022-08-01T08:42:14;22.40;99.90
26212;DHT22;13951;49.516;6.094;2022-08-01T08:44:47;22.50;99.90
26212;DHT22;13951;49.516;6.094;2022-08-01T08:47:21;22.50;99.90
26212;DHT22;13951;49.516;6.094;2022-08-01T08:49:56;22.40;99.90
26212;DHT22;13951;49.516;6.094;2022-08-01T08:52:30;22.50;99.90
26212;DHT22;13951;49.516;6.094;2022-08-01T08:55:04;22.50;99.90
26212;DHT22;13951;49.516;6.094;2022-08-01T08:57:39;22.50;99.90
26212;DHT22;13951;49.516;6.094;2022-08-01T09:00:14;22.50;99.90
26212;DHT22;13951;49.516;6.094;2022-08-01T09:02:48;22.40;99.90
26212;DHT22;13951;49.516;6.094;2022-08-01T09:05:30;22.50;99.90
26212;DHT22;13951;49.516;6.094;2022-08-01T09:08:11;22.50;99.90
26212;DHT22;13951;49.516;6.094;2022-08-01T09:10:45;22.50;99.90
26212;DHT22;13951;49.516;6.094;2022-08-01T09:13:18;22.50;99.90
26212;DHT22;13951;49.516;6.094;2022-08-01T09:15:53;22.50;99.90
26212;DHT22;13951;49.516;6.094;2022-08-01T09:18:37;22.50;99.90
26212;DHT22;13951;49.516;6.094;2022-08-01T09:21:21;22.50;99.90
26212;DHT22;13951;49.516;6.094;2022-08-01T09:24:03;22.50;99.90
26212;DHT22;13951;49.516;6.094;2022-08-01T09:26:38;22.50;99.90
26212;DHT22;13951;49.516;6.094;2022-08-01T09:29:18;22.50;99.90
26212;DHT22;13951;49.516;6.094;2022-08-01T09:35:43;22.50;99.90
26212;DHT22;13951;49.516;6.094;2022-08-01T09:38:21;22.50;99.90
26212;DHT22;13951;49.516;6.094;2022-08-01T09:40:58;22.50;99.90
26212;DHT22;13951;49.516;6.094;2022-08-01T09:43:33;22.50;99.90
26212;DHT22;13951;49.516;6.094;2022-08-01T09:46:23;22.60;99.90
26212;DHT22;13951;49.516;6.094;2022-08-01T09:49:05;22.60;99.90
26212;DHT22;13951;49.516;6.094;2022-08-01T09:51:42;22.60;99.90
26212;DHT22;13951;49.516;6.094;2022-08-01T09:54:34;22.70;99.90
26212;DHT22;13951;49.516;6.094;2022-08-01T09:57:14;22.70;99.90
26212;DHT22;13951;49.516;6.094;2022-08-01T09:59:50;22.80;99.90
26212;DHT22;13951;49.516;6.094;2022-08-01T10:05:11;22.80;99.90
26212;DHT22;13951;49.516;6.094;2022-08-01T10:08:04;22.80;99.90
26212;DHT22;13951;49.516;6.094;2022-08-01T10:10:40;22.90;99.90
26212;DHT22;13951;49.516;6.094;2022-08-01T10:13:18;22.90;99.90
26212;DHT22;13951;49.516;6.094;2022-08-01T10:15:52;23.00;99.90
26212;DHT22;13951;49.516;6.094;2022-08-01T10:18:34;23.00;99.90
26212;DHT22;13951;49.516;6.094;2022-08-01T10:21:08;23.00;99.90
26212;DHT22;13951;49.516;6.094;2022-08-01T10:23:43;23.00;99.90
26212;DHT22;13951;49.516;6.094;2022-08-01T10:26:16;23.00;99.90
26212;DHT22;13951;49.516;6.094;2022-08-01T10:28:50;23.00;99.90
26212;DHT22;13951;49.516;6.094;2022-08-01T10:31:24;23.00;99.90
26212;DHT22;13951;49.516;6.094;2022-08-01T10:34:03;23.00;99.90
26212;DHT22;13951;49.516;6.094;2022-08-01T10:36:42;23.00;99.90
26212;DHT22;13951;49.516;6.094;2022-08-01T10:39:15;23.00;99.90
26212;DHT22;13951;49.516;6.094;2022-08-01T10:41:52;23.00;99.90
26212;DHT22;13951;49.516;6.094;2022-08-01T10:44:26;23.00;99.90
26212;DHT22;13951;49.516;6.094;2022-08-01T10:47:10;23.10;99.90
26212;DHT22;13951;49.516;6.094;2022-08-01T10:50:02;23.20;99.90
26212;DHT22;13951;49.516;6.094;2022-08-01T10:52:37;23.20;99.90
26212;DHT22;13951;49.516;6.094;2022-08-01T10:55:11;23.20;99.90
26212;DHT22;13951;49.516;6.094;2022-08-01T10:57:46;23.40;99.90
26212;DHT22;13951;49.516;6.094;2022-08-01T11:00:24;23.40;99.90
26212;DHT22;13951;49.516;6.094;2022-08-01T11:03:00;23.40;99.90
26212;DHT22;13951;49.516;6.094;2022-08-01T11:05:34;23.50;99.90
26212;DHT22;13951;49.516;6.094;2022-08-01T11:08:27;23.50;99.90
26212;DHT22;13951;49.516;6.094;2022-08-01T11:11:01;23.50;99.90
26212;DHT22;13951;49.516;6.094;2022-08-01T11:16:32;23.60;99.90
26212;DHT22;13951;49.516;6.094;2022-08-01T11:19:07;23.60;99.90
26212;DHT22;13951;49.516;6.094;2022-08-01T11:22:10;23.70;99.90
26212;DHT22;13951;49.516;6.094;2022-08-01T11:27:30;23.60;99.90
26212;DHT22;13951;49.516;6.094;2022-08-01T11:38:48;23.60;99.90
26212;DHT22;13951;49.516;6.094;2022-08-01T11:41:25;23.60;99.90
26212;DHT22;13951;49.516;6.094;2022-08-01T11:47:05;23.50;99.90
26212;DHT22;13951;49.516;6.094;2022-08-01T11:49:47;23.50;99.90
26212;DHT22;13951;49.516;6.094;2022-08-01T11:57:35;23.40;99.90
26212;DHT22;13951;49.516;6.094;2022-08-01T12:04:20;23.30;99.90
26212;DHT22;13951;49.516;6.094;2022-08-01T12:07:14;23.30;99.90
26212;DHT22;13951;49.516;6.094;2022-08-01T12:12:35;23.30;99.90
26212;DHT22;13951;49.516;6.094;2022-08-01T12:15:09;23.30;99.90
26212;DHT22;13951;49.516;6.094;2022-08-01T12:17:44;23.30;99.90
26212;DHT22;13951;49.516;6.094;2022-08-01T12:20:33;23.40;99.90
26212;DHT22;13951;49.516;6.094;2022-08-01T12:23:09;23.50;99.90
26212;DHT22;13951;49.516;6.094;2022-08-01T12:25:42;23.60;99.90
26212;DHT22;13951;49.516;6.094;2022-08-01T12:28:20;23.70;99.90
26212;DHT22;13951;49.516;6.094;2022-08-01T12:30:53;23.70;99.90
26212;DHT22;13951;49.516;6.094;2022-08-01T12:33:26;23.70;99.90
26212;DHT22;13951;49.516;6.094;2022-08-01T12:35:59;23.80;99.90
26212;DHT22;13951;49.516;6.094;2022-08-01T12:38:32;23.70;99.90
26212;DHT22;13951;49.516;6.094;2022-08-01T12:41:10;23.80;99.90
26212;DHT22;13951;49.516;6.094;2022-08-01T12:43:43;23.80;99.90
26212;DHT22;13951;49.516;6.094;2022-08-01T12:46:17;23.80;99.90
26212;DHT22;13951;49.516;6.094;2022-08-01T12:48:50;23.80;99.90
26212;DHT22;13951;49.516;6.094;2022-08-01T12:51:23;23.90;99.90
26212;DHT22;13951;49.516;6.094;2022-08-01T12:53:59;23.90;99.90
26212;DHT22;13951;49.516;6.094;2022-08-01T12:56:32;23.90;99.90
26212;DHT22;13951;49.516;6.094;2022-08-01T12:59:25;23.90;99.90
26212;DHT22;13951;49.516;6.094;2022-08-01T13:02:08;23.90;99.90
26212;DHT22;13951;49.516;6.094;2022-08-01T13:04:51;23.90;99.90
26212;DHT22;13951;49.516;6.094;2022-08-01T13:07:56;24.00;99.90
26212;DHT22;13951;49.516;6.094;2022-08-01T13:10:29;24.10;99.90
26212;DHT22;13951;49.516;6.094;2022-08-01T13:13:02;24.20;99.90
26212;DHT22;13951;49.516;6.094;2022-08-01T13:15:40;24.20;99.90
26212;DHT22;13951;49.516;6.094;2022-08-01T13:18:29;24.30;99.90
26212;DHT22;13951;49.516;6.094;2022-08-01T13:21:13;24.40;99.90
26212;DHT22;13951;49.516;6.094;2022-08-01T13:29:19;24.50;99.90
26212;DHT22;13951;49.516;6.094;2022-08-01T13:31:53;24.60;99.90
26212;DHT22;13951;49.516;6.094;2022-08-01T13:34:30;24.70;99.90
26212;DHT22;13951;49.516;6.094;2022-08-01T13:37:06;24.70;99.90
26212;DHT22;13951;49.516;6.094;2022-08-01T13:39:43;24.70;99.90
26212;DHT22;13951;49.516;6.094;2022-08-01T13:42:17;24.70;99.90
26212;DHT22;13951;49.516;6.094;2022-08-01T13:44:51;24.70;99.90
26212;DHT22;13951;49.516;6.094;2022-08-01T13:47:24;24.60;99.90
26212;DHT22;13951;49.516;6.094;2022-08-01T13:50:04;24.60;99.90
26212;DHT22;13951;49.516;6.094;2022-08-01T13:52:38;24.70;99.90
26212;DHT22;13951;49.516;6.094;2022-08-01T13:55:11;24.60;99.90
26212;DHT22;13951;49.516;6.094;2022-08-01T13:57:44;24.50;99.90
26212;DHT22;13951;49.516;6.094;2022-08-01T14:00:17;24.50;99.90
26212;DHT22;13951;49.516;6.094;2022-08-01T14:02:50;24.50;99.90
26212;DHT22;13951;49.516;6.094;2022-08-01T14:05:23;24.40;99.90
26212;DHT22;13951;49.516;6.094;2022-08-01T14:07:57;24.40;99.90
26212;DHT22;13951;49.516;6.094;2022-08-01T14:10:30;24.30;99.90
26212;DHT22;13951;49.516;6.094;2022-08-01T14:13:03;24.30;99.90
26212;DHT22;13951;49.516;6.094;2022-08-01T14:15:37;24.20;99.90
26212;DHT22;13951;49.516;6.094;2022-08-01T14:18:11;24.20;99.90
26212;DHT22;13951;49.516;6.094;2022-08-01T14:20:44;24.20;99.90
26212;DHT22;13951;49.516;6.094;2022-08-01T14:23:18;24.10;99.90
26212;DHT22;13951;49.516;6.094;2022-08-01T14:25:51;24.10;99.90
26212;DHT22;13951;49.516;6.094;2022-08-01T14:28:38;24.10;99.90
26212;DHT22;13951;49.516;6.094;2022-08-01T14:31:11;24.20;99.90
26212;DHT22;13951;49.516;6.094;2022-08-01T14:33:44;24.30;99.90
26212;DHT22;13951;49.516;6.094;2022-08-01T14:36:18;24.40;99.90
26212;DHT22;13951;49.516;6.094;2022-08-01T14:39:03;24.40;99.90
26212;DHT22;13951;49.516;6.094;2022-08-01T14:41:36;24.50;99.90
26212;DHT22;13951;49.516;6.094;2022-08-01T14:44:09;24.60;99.90
26212;DHT22;13951;49.516;6.094;2022-08-01T14:46:42;24.60;99.90
26212;DHT22;13951;49.516;6.094;2022-08-01T14:49:30;24.60;99.90
26212;DHT22;13951;49.516;6.094;2022-08-01T14:52:03;24.60;99.90
26212;DHT22;13951;49.516;6.094;2022-08-01T14:54:38;24.60;99.90
26212;DHT22;13951;49.516;6.094;2022-08-01T14:57:14;24.60;99.90
26212;DHT22;13951;49.516;6.094;2022-08-01T14:59:52;24.70;99.90
26212;DHT22;13951;49.516;6.094;2022-08-01T15:02:25;24.60;99.90
26212;DHT22;13951;49.516;6.094;2022-08-01T15:04:58;24.50;99.90
26212;DHT22;13951;49.516;6.094;2022-08-01T15:07:32;24.50;99.90
26212;DHT22;13951;49.516;6.094;2022-08-01T15:10:07;24.50;99.90
26212;DHT22;13951;49.516;6.094;2022-08-01T15:12:47;24.50;99.90
26212;DHT22;13951;49.516;6.094;2022-08-01T15:15:26;24.30;99.90
26212;DHT22;13951;49.516;6.094;2022-08-01T15:17:59;24.30;99.90
26212;DHT22;13951;49.516;6.094;2022-08-01T15:20:32;24.20;99.90
26212;DHT22;13951;49.516;6.094;2022-08-01T15:23:05;24.20;99.90
26212;DHT22;13951;49.516;6.094;2022-08-01T15:25:38;24.10;99.90
26212;DHT22;13951;49.516;6.094;2022-08-01T15:28:13;24.00;99.90
26212;DHT22;13951;49.516;6.094;2022-08-01T15:30:47;24.00;99.90
26212;DHT22;13951;49.516;6.094;2022-08-01T15:33:20;24.00;99.90
26212;DHT22;13951;49.516;6.094;2022-08-01T15:35:54;24.00;99.90
26212;DHT22;13951;49.516;6.094;2022-08-01T15:38:29;24.00;99.90
26212;DHT22;13951;49.516;6.094;2022-08-01T15:41:02;24.00;99.90
26212;DHT22;13951;49.516;6.094;2022-08-01T15:43:35;24.10;99.90
26212;DHT22;13951;49.516;6.094;2022-08-01T15:46:15;24.10;99.90
26212;DHT22;13951;49.516;6.094;2022-08-01T15:48:48;24.10;99.90
26212;DHT22;13951;49.516;6.094;2022-08-01T15:51:21;24.10;99.90
26212;DHT22;13951;49.516;6.094;2022-08-01T15:53:55;24.10;99.90
26212;DHT22;13951;49.516;6.094;2022-08-01T15:56:31;24.10;99.90
26212;DHT22;13951;49.516;6.094;2022-08-01T15:59:05;24.00;99.90
26212;DHT22;13951;49.516;6.094;2022-08-01T16:01:38;24.00;99.90
26212;DHT22;13951;49.516;6.094;2022-08-01T16:04:11;24.00;99.90
26212;DHT22;13951;49.516;6.094;2022-08-01T16:06:44;24.00;99.90
26212;DHT22;13951;49.516;6.094;2022-08-01T16:09:17;24.00;99.90
26212;DHT22;13951;49.516;6.094;2022-08-01T16:11:55;23.90;99.90
26212;DHT22;13951;49.516;6.094;2022-08-01T16:14:29;23.90;99.90
26212;DHT22;13951;49.516;6.094;2022-08-01T16:17:02;23.90;99.90
26212;DHT22;13951;49.516;6.094;2022-08-01T16:19:35;23.90;99.90
26212;DHT22;13951;49.516;6.094;2022-08-01T16:22:08;23.90;99.90
26212;DHT22;13951;49.516;6.094;2022-08-01T16:24:41;24.00;99.90
26212;DHT22;13951;49.516;6.094;2022-08-01T16:27:15;23.90;99.90
26212;DHT22;13951;49.516;6.094;2022-08-01T16:29:48;23.90;99.90
26212;DHT22;13951;49.516;6.094;2022-08-01T16:32:21;23.90;99.90
26212;DHT22;13951;49.516;6.094;2022-08-01T16:35:10;24.00;99.90
26212;DHT22;13951;49.516;6.094;2022-08-01T16:37:50;24.00;99.90
26212;DHT22;13951;49.516;6.094;2022-08-01T16:40:23;24.00;99.90
26212;DHT22;13951;49.516;6.094;2022-08-01T16:42:57;24.00;99.90
26212;DHT22;13951;49.516;6.094;2022-08-01T16:45:30;24.10;99.90
26212;DHT22;13951;49.516;6.094;2022-08-01T16:48:04;24.10;99.90
26212;DHT22;13951;49.516;6.094;2022-08-01T16:50:37;24.00;99.90
26212;DHT22;13951;49.516;6.094;2022-08-01T16:53:10;24.00;99.90
26212;DHT22;13951;49.516;6.094;2022-08-01T16:55:44;24.00;99.90
26212;DHT22;13951;49.516;6.094;2022-08-01T16:58:22;24.00;99.90
26212;DHT22;13951;49.516;6.094;2022-08-01T17:00:59;23.90;99.90
26212;DHT22;13951;49.516;6.094;2022-08-01T17:03:53;24.00;99.90
26212;DHT22;13951;49.516;6.094;2022-08-01T17:06:31;23.90;99.90
26212;DHT22;13951;49.516;6.094;2022-08-01T17:09:04;23.90;99.90
26212;DHT22;13951;49.516;6.094;2022-08-01T17:11:37;23.90;99.90
26212;DHT22;13951;49.516;6.094;2022-08-01T17:14:10;23.80;99.90
26212;DHT22;13951;49.516;6.094;2022-08-01T17:16:43;23.80;99.90
26212;DHT22;13951;49.516;6.094;2022-08-01T17:19:16;23.70;99.90
26212;DHT22;13951;49.516;6.094;2022-08-01T17:21:49;23.80;99.90
26212;DHT22;13951;49.516;6.094;2022-08-01T17:24:24;23.70;99.90
26212;DHT22;13951;49.516;6.094;2022-08-01T17:26:57;23.70;99.90
26212;DHT22;13951;49.516;6.094;2022-08-01T17:29:30;23.70;99.90